createdAt,value
2023-12-08T00:02:06.996Z,-4.19
2023-12-08T00:04:35.213Z,-4.18
2023-12-08T00:07:04.966Z,-4.26
2023-12-08T00:09:34.070Z,-4.25
2023-12-08T00:12:03.054Z,-4.25
2023-12-08T00:14:31.388Z,-4.29
2023-12-08T00:16:59.667Z,-4.27
2023-12-08T00:19:32.805Z,-4.26
2023-12-08T00:22:01.182Z,-4.22
2023-12-08T00:24:30.959Z,-4.21
2023-12-08T00:26:59.165Z,-4.20
2023-12-08T00:29:27.588Z,-4.22
2023-12-08T00:31:55.758Z,-4.19
2023-12-08T00:34:24.078Z,-4.20
2023-12-08T00:36:52.500Z,-4.19
2023-12-08T00:39:20.639Z,-4.19
2023-12-08T00:41:50.499Z,-4.24
2023-12-08T00:44:18.746Z,-4.20
2023-12-08T00:46:46.931Z,-4.20
2023-12-08T00:49:15.372Z,-4.21
2023-12-08T00:51:43.654Z,-4.22
2023-12-08T00:54:11.828Z,-4.27
2023-12-08T00:56:40.027Z,-4.31
2023-12-08T00:59:09.634Z,-4.32
2023-12-08T01:01:37.856Z,-4.34
2023-12-08T01:04:09.257Z,-4.36
2023-12-08T01:06:37.524Z,-4.38
2023-12-08T01:09:06.218Z,-4.40
2023-12-08T01:11:34.654Z,-4.42
2023-12-08T01:14:02.933Z,-4.44
2023-12-08T01:16:32.550Z,-4.42
2023-12-08T01:19:00.932Z,-4.41
2023-12-08T01:21:29.163Z,-4.43
2023-12-08T01:23:57.345Z,-4.42
2023-12-08T01:26:25.616Z,-4.41
2023-12-08T01:28:53.867Z,-4.42
2023-12-08T01:31:22.052Z,-4.40
2023-12-08T01:33:51.811Z,-4.40
2023-12-08T01:36:39.498Z,-4.33
2023-12-08T01:39:08.464Z,-4.36
2023-12-08T01:41:36.773Z,-4.33
2023-12-08T01:44:05.113Z,-4.36
2023-12-08T01:46:33.324Z,-4.35
2023-12-08T01:49:03.234Z,-4.34
2023-12-08T01:51:31.583Z,-4.33
2023-12-08T01:53:59.893Z,-4.41
2023-12-08T01:56:29.422Z,-4.39
2023-12-08T01:58:57.788Z,-4.37
2023-12-08T02:01:26.116Z,-4.38
2023-12-08T02:03:54.863Z,-4.39
2023-12-08T02:06:24.531Z,-4.45
2023-12-08T02:08:53.180Z,-4.44
2023-12-08T02:11:21.964Z,-4.48
2023-12-08T02:13:51.361Z,-4.47
2023-12-08T02:16:24.167Z,-4.44
2023-12-08T02:18:53.507Z,-4.42
2023-12-08T02:21:22.494Z,-4.40
2023-12-08T02:23:52.515Z,-4.39
2023-12-08T02:26:22.056Z,-4.35
2023-12-08T02:28:50.496Z,-4.34
2023-12-08T02:31:24.787Z,-4.30
2023-12-08T02:33:55.875Z,-4.29
2023-12-08T02:36:24.199Z,-4.33
2023-12-08T02:38:55.363Z,-4.31
2023-12-08T02:41:23.764Z,-4.30
2023-12-08T02:43:52.074Z,-4.36
2023-12-08T02:46:20.327Z,-4.30
2023-12-08T02:48:54.486Z,-4.25
2023-12-08T02:51:23.671Z,-4.23
2023-12-08T02:53:53.993Z,-4.29
2023-12-08T02:56:22.251Z,-4.26
2023-12-08T02:58:50.423Z,-4.26
2023-12-08T03:01:18.681Z,-4.26
2023-12-08T03:03:47.526Z,-4.26
2023-12-08T03:06:15.893Z,-4.24
2023-12-08T03:08:45.048Z,-4.18
2023-12-08T03:11:14.647Z,-4.20
2023-12-08T03:13:42.816Z,-4.17
2023-12-08T03:16:11.166Z,-4.16
2023-12-08T03:18:39.597Z,-4.15
2023-12-08T03:21:08.445Z,-4.15
2023-12-08T03:23:36.853Z,-4.17
2023-12-08T03:26:05.999Z,-4.16
2023-12-08T03:28:35.594Z,-4.16
2023-12-08T03:31:03.779Z,-4.15
2023-12-08T03:33:32.196Z,-4.13
2023-12-08T03:36:00.548Z,-4.14
2023-12-08T03:38:28.778Z,-4.11
2023-12-08T03:40:56.978Z,-4.08
2023-12-08T03:43:25.187Z,-4.08
2023-12-08T03:45:54.762Z,-4.09
2023-12-08T03:48:23.348Z,-4.06
2023-12-08T03:50:51.584Z,-4.01
2023-12-08T03:53:20.159Z,-3.98
2023-12-08T03:55:48.358Z,-3.96
2023-12-08T03:58:16.522Z,-3.93
2023-12-08T04:00:44.954Z,-3.91
2023-12-08T04:03:14.657Z,-3.93
2023-12-08T04:05:42.921Z,-3.90
2023-12-08T04:08:11.381Z,-3.92
2023-12-08T04:10:39.556Z,-3.91
2023-12-08T04:13:07.703Z,-3.91
2023-12-08T04:15:35.994Z,-3.88
2023-12-08T04:18:04.387Z,-3.88
2023-12-08T04:20:34.225Z,-3.87
2023-12-08T04:23:06.356Z,-3.83
2023-12-08T04:25:35.487Z,-3.80
2023-12-08T04:28:03.761Z,-3.76
2023-12-08T04:30:31.932Z,-3.77
2023-12-08T04:33:00.234Z,-3.80
2023-12-08T04:35:28.627Z,-3.77
2023-12-08T04:37:58.279Z,-3.77
2023-12-08T04:40:26.513Z,-3.79
2023-12-08T04:42:54.677Z,-3.78
2023-12-08T04:45:23.895Z,-3.75
2023-12-08T04:47:52.225Z,-3.77
2023-12-08T04:50:20.449Z,-3.74
2023-12-08T04:52:48.599Z,-3.78
2023-12-08T04:55:18.260Z,-3.71
2023-12-08T04:57:46.476Z,-3.71
2023-12-08T05:00:15.232Z,-3.68
2023-12-08T05:02:43.452Z,-3.68
2023-12-08T05:05:11.615Z,-3.63
2023-12-08T05:07:39.780Z,-3.62
2023-12-08T05:10:08.686Z,-3.63
2023-12-08T05:12:38.263Z,-3.60
2023-12-08T05:15:07.665Z,-3.53
2023-12-08T05:17:35.933Z,-3.50
2023-12-08T05:20:05.681Z,-3.49
2023-12-08T05:22:34.255Z,-3.52
2023-12-08T05:25:02.587Z,-3.50
2023-12-08T05:27:31.274Z,-3.47
2023-12-08T05:30:00.918Z,-3.44
2023-12-08T05:32:30.017Z,-3.43
2023-12-08T05:34:58.309Z,-3.38
2023-12-08T05:37:26.701Z,-3.35
2023-12-08T05:39:55.027Z,-3.34
2023-12-08T05:42:23.193Z,-3.39
2023-12-08T05:44:51.402Z,-3.39
2023-12-08T05:47:21.012Z,-3.36
2023-12-08T05:49:49.263Z,-3.43
2023-12-08T05:52:17.541Z,-3.43
2023-12-08T05:54:45.796Z,-3.40
2023-12-08T05:57:14.059Z,-3.35
2023-12-08T05:59:42.368Z,-3.31
2023-12-08T06:02:10.690Z,-3.28
2023-12-08T06:04:40.647Z,-3.31
2023-12-08T06:07:08.928Z,-3.29
2023-12-08T06:09:37.358Z,-3.27
2023-12-08T06:12:06.264Z,-3.21
2023-12-08T06:14:34.581Z,-3.23
2023-12-08T06:17:03.045Z,-3.22
2023-12-08T06:19:31.262Z,-3.21
2023-12-08T06:22:00.906Z,-3.23
2023-12-08T06:24:29.161Z,-3.19
2023-12-08T06:26:58.008Z,-3.17
2023-12-08T06:29:28.984Z,-3.18
2023-12-08T06:31:57.327Z,-3.18
2023-12-08T06:34:25.626Z,-3.16
2023-12-08T06:36:53.887Z,-3.15
2023-12-08T06:39:23.571Z,-3.16
2023-12-08T06:41:51.783Z,-3.17
2023-12-08T06:44:19.993Z,-3.21
2023-12-08T06:46:48.211Z,-3.14
2023-12-08T06:49:16.740Z,-3.16
2023-12-08T06:51:44.980Z,-3.14
2023-12-08T06:54:13.383Z,-3.08
2023-12-08T06:56:44.475Z,-3.07
2023-12-08T06:59:12.864Z,-3.08
2023-12-08T07:01:41.295Z,-3.06
2023-12-08T07:04:09.642Z,-3.08
2023-12-08T07:06:38.371Z,-3.03
2023-12-08T07:09:07.786Z,-3.03
2023-12-08T07:11:36.177Z,-3.03
2023-12-08T07:14:05.808Z,-3.02
2023-12-08T07:16:34.007Z,-3.03
2023-12-08T07:19:02.305Z,-3.04
2023-12-08T07:21:30.556Z,-3.00
2023-12-08T07:23:58.729Z,-2.99
2023-12-08T07:26:26.945Z,-2.97
2023-12-08T07:28:55.092Z,-2.96
2023-12-08T07:31:25.736Z,-2.94
2023-12-08T07:33:54.020Z,-2.94
2023-12-08T07:36:22.341Z,-2.96
2023-12-08T07:38:50.536Z,-2.93
2023-12-08T07:41:22.894Z,-2.93
2023-12-08T07:43:56.055Z,-2.92
2023-12-08T07:46:26.063Z,-2.89
2023-12-08T07:48:54.421Z,-2.90
2023-12-08T07:51:25.599Z,-2.88
2023-12-08T07:53:53.790Z,-2.85
2023-12-08T07:56:23.795Z,-2.88
2023-12-08T07:58:51.987Z,-2.90
2023-12-08T08:01:20.720Z,-2.87
2023-12-08T08:03:50.380Z,-2.81
2023-12-08T08:06:18.633Z,-2.80
2023-12-08T08:08:46.859Z,-2.74
2023-12-08T08:11:15.092Z,-2.72
2023-12-08T08:13:43.268Z,-2.67
2023-12-08T08:16:11.405Z,-2.65
2023-12-08T08:18:39.809Z,-2.64
2023-12-08T08:21:09.477Z,-2.64
2023-12-08T08:23:37.715Z,-2.61
2023-12-08T08:26:06.534Z,-2.64
2023-12-08T08:28:35.489Z,-2.58
2023-12-08T08:31:03.694Z,-2.58
2023-12-08T08:33:31.967Z,-2.60
2023-12-08T08:36:00.385Z,-2.58
2023-12-08T08:38:30.010Z,-2.55
2023-12-08T08:40:58.226Z,-2.59
2023-12-08T08:43:26.411Z,-2.59
2023-12-08T08:45:54.604Z,-2.60
2023-12-08T08:48:23.146Z,-2.58
2023-12-08T08:50:51.623Z,-2.55
2023-12-08T08:53:20.038Z,-2.57
2023-12-08T08:55:49.664Z,-2.58
2023-12-08T08:58:17.971Z,-2.55
2023-12-08T09:00:47.335Z,-2.53
2023-12-08T09:03:15.737Z,-2.51
2023-12-08T09:05:44.156Z,-2.44
2023-12-08T09:08:14.715Z,-2.40
2023-12-08T09:10:47.241Z,-2.39
2023-12-08T09:13:17.914Z,-2.35
2023-12-08T09:15:46.423Z,-2.27
2023-12-08T09:18:14.916Z,-2.27
2023-12-08T09:20:44.947Z,-2.25
2023-12-08T09:23:14.363Z,-2.21
2023-12-08T09:25:42.718Z,-2.17
2023-12-08T09:28:10.933Z,-2.14
2023-12-08T09:30:40.671Z,-2.07
2023-12-08T09:33:10.778Z,-2.05
2023-12-08T09:35:39.159Z,-1.99
2023-12-08T09:38:10.770Z,-1.97
2023-12-08T09:40:45.896Z,-1.92
2023-12-08T09:43:20.561Z,-1.86
2023-12-08T09:45:50.695Z,-1.82
2023-12-08T09:48:22.817Z,-1.82
2023-12-08T09:50:52.928Z,-1.79
2023-12-08T09:53:21.819Z,-1.77
2023-12-08T09:55:50.487Z,-1.72
2023-12-08T09:58:19.874Z,-1.70
2023-12-08T10:00:50.899Z,-1.66
2023-12-08T10:03:19.223Z,-1.62
2023-12-08T10:05:48.095Z,-1.62
2023-12-08T10:08:17.159Z,-1.58
2023-12-08T10:10:45.653Z,-1.58
2023-12-08T10:13:14.649Z,-1.54
2023-12-08T10:15:44.264Z,-1.51
2023-12-08T10:18:24.943Z,-1.55
2023-12-08T10:20:54.812Z,-1.49
2023-12-08T10:23:23.320Z,-1.47
2023-12-08T10:25:51.634Z,-1.52
2023-12-08T10:28:23.916Z,-1.48
2023-12-08T10:30:54.311Z,-1.46
2023-12-08T10:33:24.695Z,-1.45
2023-12-08T10:35:53.407Z,-1.44
2023-12-08T10:38:22.624Z,-1.35
2023-12-08T10:40:53.985Z,-1.37
2023-12-08T10:43:26.823Z,-1.34
2023-12-08T10:45:56.020Z,-1.31
2023-12-08T10:48:26.337Z,-1.39
2023-12-08T10:50:55.386Z,-1.36
2023-12-08T10:53:23.286Z,-1.39
2023-12-08T10:55:55.438Z,-1.37
2023-12-08T10:58:24.571Z,-1.36
2023-12-08T11:00:55.170Z,-1.35
2023-12-08T11:03:29.667Z,-1.30
2023-12-08T11:06:03.743Z,-1.25
2023-12-08T11:08:32.830Z,-1.16
2023-12-08T11:11:01.916Z,-1.13
2023-12-08T11:13:32.021Z,-1.12
2023-12-08T11:16:13.185Z,-1.08
2023-12-08T11:18:43.043Z,-1.11
2023-12-08T11:21:13.335Z,-1.09
2023-12-08T11:23:43.687Z,-1.13
2023-12-08T11:26:21.706Z,-1.11
2023-12-08T11:28:59.272Z,-1.09
2023-12-08T11:31:37.297Z,-1.06
2023-12-08T11:34:13.254Z,-1.05
2023-12-08T11:36:46.435Z,-1.11
2023-12-08T11:39:46.173Z,-1.10
2023-12-08T11:42:15.104Z,-0.97
2023-12-08T11:44:45.688Z,-1.10
2023-12-08T11:47:16.868Z,-1.19
2023-12-08T11:49:48.381Z,-1.16
2023-12-08T11:52:21.797Z,-1.15
2023-12-08T11:55:10.393Z,-1.14
2023-12-08T11:57:43.193Z,-1.09
2023-12-08T12:00:13.035Z,-1.15
2023-12-08T12:02:45.464Z,-1.24
2023-12-08T12:05:15.287Z,-1.22
2023-12-08T12:07:47.167Z,-1.24
2023-12-08T12:10:18.153Z,-1.22
2023-12-08T12:12:51.814Z,-1.29
2023-12-08T12:15:22.573Z,-1.25
2023-12-08T12:17:52.707Z,-1.17
2023-12-08T12:20:22.562Z,-1.16
2023-12-08T12:22:50.926Z,-1.18
2023-12-08T12:25:20.114Z,-1.20
2023-12-08T12:27:48.987Z,-1.21
2023-12-08T12:30:17.736Z,-1.21
2023-12-08T12:32:46.863Z,-1.18
2023-12-08T12:35:15.575Z,-1.16
2023-12-08T12:37:45.597Z,-1.18
2023-12-08T12:40:14.395Z,-1.17
2023-12-08T12:42:44.941Z,-1.21
2023-12-08T12:45:26.968Z,-1.27
2023-12-08T12:48:01.676Z,-1.32
2023-12-08T12:50:30.004Z,-1.33
2023-12-08T12:53:06.514Z,-1.32
2023-12-08T12:55:34.799Z,-1.31
2023-12-08T12:58:03.643Z,-1.33
2023-12-08T13:00:34.074Z,-1.32
2023-12-08T13:03:10.770Z,-1.32
2023-12-08T13:05:47.222Z,-1.36
2023-12-08T13:08:18.115Z,-1.34
2023-12-08T13:10:47.387Z,-1.34
2023-12-08T13:13:15.607Z,-1.29
2023-12-08T13:15:44.180Z,-1.29
2023-12-08T13:18:12.889Z,-1.30
2023-12-08T13:20:42.664Z,-1.31
2023-12-08T13:23:11.426Z,-1.30
2023-12-08T13:25:41.621Z,-1.28
2023-12-08T13:28:09.935Z,-1.26
2023-12-08T13:30:38.253Z,-1.29
2023-12-08T13:33:07.555Z,-1.24
2023-12-08T13:35:36.400Z,-1.30
2023-12-08T13:38:04.793Z,-1.31
2023-12-08T13:40:33.029Z,-1.31
2023-12-08T13:43:02.615Z,-1.31
2023-12-08T13:45:32.002Z,-1.33
2023-12-08T13:48:00.625Z,-1.34
2023-12-08T13:50:29.076Z,-1.38
2023-12-08T13:52:57.370Z,-1.36
2023-12-08T13:55:25.592Z,-1.41
2023-12-08T13:57:53.798Z,-1.46
2023-12-08T14:00:23.450Z,-1.46
2023-12-08T14:02:52.080Z,-1.48
2023-12-08T14:05:20.527Z,-1.45
2023-12-08T14:07:54.290Z,-1.45
2023-12-08T14:10:24.641Z,-1.48
2023-12-08T14:12:52.822Z,-1.52
2023-12-08T14:15:22.528Z,-1.53
2023-12-08T14:17:50.810Z,-1.47
2023-12-08T14:20:19.032Z,-1.54
2023-12-08T14:22:48.380Z,-1.58
2023-12-08T14:25:17.269Z,-1.58
2023-12-08T14:27:45.728Z,-1.55
2023-12-08T14:30:14.553Z,-1.56
2023-12-08T14:32:44.294Z,-1.61
2023-12-08T14:35:19.359Z,-1.57
2023-12-08T14:37:54.745Z,-1.46
2023-12-08T14:40:23.421Z,-1.41
2023-12-08T14:42:52.682Z,-1.43
2023-12-08T14:45:20.957Z,-1.44
2023-12-08T14:47:50.889Z,-1.40
2023-12-08T14:50:19.098Z,-1.41
2023-12-08T14:52:47.311Z,-1.45
2023-12-08T14:55:16.912Z,-1.44
2023-12-08T14:57:46.312Z,-1.47
2023-12-08T15:00:15.651Z,-1.46
2023-12-08T15:02:44.516Z,-1.55
2023-12-08T15:05:14.445Z,-1.59
2023-12-08T15:07:42.912Z,-1.62
2023-12-08T15:10:11.625Z,-1.63
2023-12-08T15:12:39.788Z,-1.65
2023-12-08T15:15:09.626Z,-1.67
2023-12-08T15:17:38.105Z,-1.66
2023-12-08T15:20:09.772Z,-1.67
2023-12-08T15:22:40.879Z,-1.70
2023-12-08T15:25:09.901Z,-1.74
2023-12-08T15:27:38.139Z,-1.79
2023-12-08T15:30:07.727Z,-1.79
2023-12-08T15:32:36.419Z,-1.82
2023-12-08T15:35:05.104Z,-1.82
2023-12-08T15:37:33.324Z,-1.79
2023-12-08T15:40:02.927Z,-1.81
2023-12-08T15:42:31.109Z,-1.81
2023-12-08T15:44:59.815Z,-1.85
2023-12-08T15:47:28.261Z,-1.88
2023-12-08T15:49:57.438Z,-1.90
2023-12-08T15:52:25.367Z,-1.90
2023-12-08T15:54:53.495Z,-1.90
2023-12-08T15:57:23.307Z,-1.89
2023-12-08T15:59:51.583Z,-1.87
2023-12-08T16:02:19.816Z,-1.90
2023-12-08T16:04:48.332Z,-1.93
2023-12-08T16:07:16.474Z,-1.97
2023-12-08T16:09:45.150Z,-1.98
2023-12-08T16:12:13.492Z,-1.90
2023-12-08T16:14:44.991Z,-1.94
2023-12-08T16:17:14.500Z,-1.92
2023-12-08T16:19:44.341Z,-1.84
2023-12-08T16:22:12.705Z,-1.86
2023-12-08T16:24:43.889Z,-1.92
2023-12-08T16:27:12.239Z,-1.91
2023-12-08T16:29:41.658Z,-2.00
2023-12-08T16:32:11.235Z,-1.99
2023-12-08T16:34:39.453Z,-1.98
2023-12-08T16:37:07.829Z,-1.92
2023-12-08T16:39:36.254Z,-1.93
2023-12-08T16:42:04.731Z,-1.93
2023-12-08T16:44:32.963Z,-1.98
2023-12-08T16:47:01.151Z,-1.98
2023-12-08T16:49:30.855Z,-2.00
2023-12-08T16:51:59.122Z,-2.00
2023-12-08T16:54:27.387Z,-2.07
2023-12-08T16:56:55.886Z,-2.09
2023-12-08T16:59:25.027Z,-2.11
2023-12-08T17:01:53.303Z,-2.21
2023-12-08T17:04:21.693Z,-2.20
2023-12-08T17:06:51.456Z,-2.15
2023-12-08T17:09:20.069Z,-2.21
2023-12-08T17:11:48.464Z,-2.21
2023-12-08T17:14:16.644Z,-2.18
2023-12-08T17:16:45.200Z,-2.16
2023-12-08T17:19:13.662Z,-2.09
2023-12-08T17:21:43.567Z,-2.04
2023-12-08T17:24:19.498Z,-2.04
2023-12-08T17:26:49.721Z,-2.10
2023-12-08T17:29:17.990Z,-2.03
2023-12-08T17:31:46.159Z,-2.01
2023-12-08T17:34:19.540Z,-1.98
2023-12-08T17:36:50.860Z,-2.01
2023-12-08T17:39:20.623Z,-2.03
2023-12-08T17:41:49.069Z,-1.96
2023-12-08T17:44:17.350Z,-1.94
2023-12-08T17:46:44.531Z,-1.91
2023-12-08T17:49:12.916Z,-1.88
2023-12-08T17:51:41.206Z,-1.88
2023-12-08T17:54:09.446Z,-1.83
2023-12-08T17:56:39.208Z,-1.82
2023-12-08T17:59:07.357Z,-1.79
2023-12-08T18:01:35.562Z,-1.78
2023-12-08T18:04:03.839Z,-1.75
2023-12-08T18:06:32.311Z,-1.73
2023-12-08T18:09:04.991Z,-1.70
2023-12-08T18:11:33.929Z,-1.70
2023-12-08T18:14:05.036Z,-1.82
2023-12-08T18:16:34.194Z,-1.83
2023-12-08T18:19:03.489Z,-1.83
2023-12-08T18:21:35.181Z,-1.85
2023-12-08T18:24:08.374Z,-1.87
2023-12-08T18:26:36.622Z,-1.85
2023-12-08T18:29:09.140Z,-1.86
2023-12-08T18:31:39.869Z,-1.85
2023-12-08T18:34:09.796Z,-1.88
2023-12-08T18:37:00.750Z,-1.85
2023-12-08T18:39:36.145Z,-1.90
2023-12-08T18:42:12.410Z,-1.90
2023-12-08T18:44:43.383Z,-1.89
2023-12-08T18:47:28.230Z,-1.92
2023-12-08T18:49:56.511Z,-2.01
2023-12-08T18:52:27.159Z,-2.01
2023-12-08T18:54:55.502Z,-2.04
2023-12-08T18:57:27.942Z,-2.03
2023-12-08T19:00:01.093Z,-2.08
2023-12-08T19:02:29.625Z,-2.08
2023-12-08T19:04:58.512Z,-2.10
2023-12-08T19:07:26.781Z,-2.10
2023-12-08T19:09:57.828Z,-2.07
2023-12-08T19:12:30.652Z,-2.04
2023-12-08T19:15:08.349Z,-1.99
2023-12-08T19:17:40.843Z,-1.91
2023-12-08T19:20:11.751Z,-1.82
2023-12-08T19:22:49.653Z,-1.85
2023-12-08T19:25:24.155Z,-1.82
2023-12-08T19:27:53.688Z,-1.83
2023-12-08T19:30:26.119Z,-1.85
2023-12-08T19:33:04.382Z,-1.90
2023-12-08T19:35:35.707Z,-1.89
2023-12-08T19:38:05.754Z,-1.84
2023-12-08T19:40:38.501Z,-1.86
2023-12-08T19:43:06.709Z,-1.87
2023-12-08T19:45:36.374Z,-1.86
2023-12-08T19:48:04.832Z,-1.81
2023-12-08T19:50:33.639Z,-1.80
2023-12-08T19:53:02.139Z,-1.81
2023-12-08T19:55:30.284Z,-1.83
2023-12-08T19:57:58.496Z,-1.85
2023-12-08T20:00:26.725Z,-1.86
2023-12-08T20:02:56.689Z,-1.89
2023-12-08T20:05:27.711Z,-1.90
2023-12-08T20:07:55.939Z,-1.88
2023-12-08T20:10:24.237Z,-1.86
2023-12-08T20:12:52.521Z,-1.84
2023-12-08T20:15:27.622Z,-1.86
2023-12-08T20:17:58.611Z,-1.84
2023-12-08T20:20:26.886Z,-1.85
2023-12-08T20:22:55.026Z,-1.82
2023-12-08T20:25:23.176Z,-1.78
2023-12-08T20:27:51.402Z,-1.80
2023-12-08T20:30:19.636Z,-1.80
2023-12-08T20:32:48.515Z,-1.78
2023-12-08T20:35:18.410Z,-1.78
2023-12-08T20:37:46.576Z,-1.77
2023-12-08T20:40:15.080Z,-1.74
2023-12-08T20:42:43.378Z,-1.74
2023-12-08T20:45:12.717Z,-1.70
2023-12-08T20:47:41.018Z,-1.68
2023-12-08T20:50:10.714Z,-1.72
2023-12-08T20:52:40.422Z,-1.71
2023-12-08T20:55:09.226Z,-1.70
2023-12-08T20:57:37.475Z,-1.72
2023-12-08T21:00:06.503Z,-1.71
2023-12-08T21:02:34.396Z,-1.72
2023-12-08T21:05:02.597Z,-1.74
2023-12-08T21:07:31.143Z,-1.75
2023-12-08T21:10:01.166Z,-1.77
2023-12-08T21:12:29.406Z,-1.79
2023-12-08T21:14:57.968Z,-1.75
2023-12-08T21:17:27.247Z,-1.75
2023-12-08T21:19:55.883Z,-1.72
2023-12-08T21:22:24.170Z,-1.74
2023-12-08T21:24:52.463Z,-1.72
2023-12-08T21:27:22.083Z,-1.74
2023-12-08T21:29:52.574Z,-1.71
2023-12-08T21:32:21.496Z,-1.67
2023-12-08T21:34:49.551Z,-1.67
2023-12-08T21:37:17.774Z,-1.61
2023-12-08T21:39:47.570Z,-1.65
2023-12-08T21:42:16.111Z,-1.66
2023-12-08T21:44:45.780Z,-1.73
2023-12-08T21:47:14.575Z,-1.74
2023-12-08T21:49:42.986Z,-1.75
2023-12-08T21:52:11.339Z,-1.76
2023-12-08T21:54:39.528Z,-1.78
2023-12-08T21:57:07.761Z,-1.77
2023-12-08T21:59:35.959Z,-1.77
2023-12-08T22:02:05.617Z,-1.78
2023-12-08T22:04:33.812Z,-1.77
2023-12-08T22:07:01.963Z,-1.76
2023-12-08T22:09:30.198Z,-1.67
2023-12-08T22:11:59.729Z,-1.70
2023-12-08T22:14:28.885Z,-1.69
2023-12-08T22:16:57.100Z,-1.66
2023-12-08T22:19:26.783Z,-1.65
2023-12-08T22:21:55.228Z,-1.58
2023-12-08T22:24:26.011Z,-1.54
2023-12-08T22:26:54.330Z,-1.51
2023-12-08T22:29:22.511Z,-1.51
2023-12-08T22:31:52.701Z,-1.46
2023-12-08T22:34:22.498Z,-1.48
2023-12-08T22:36:52.245Z,-1.44
2023-12-08T22:39:20.470Z,-1.39
2023-12-08T22:41:48.677Z,-1.42
2023-12-08T22:44:16.851Z,-1.50
2023-12-08T22:46:45.052Z,-1.48
2023-12-08T22:49:14.118Z,-1.48
2023-12-08T22:51:53.627Z,-1.49
2023-12-08T22:54:28.383Z,-1.52
2023-12-08T22:56:56.757Z,-1.56
2023-12-08T22:59:24.992Z,-1.58
2023-12-08T23:01:53.152Z,-1.52
2023-12-08T23:04:21.502Z,-1.48
2023-12-08T23:06:50.372Z,-1.48
2023-12-08T23:09:18.582Z,-1.50
2023-12-08T23:11:48.320Z,-1.48
2023-12-08T23:14:16.491Z,-1.50
2023-12-08T23:16:44.776Z,-1.53
2023-12-08T23:19:16.230Z,-1.51
2023-12-08T23:21:44.499Z,-1.54
2023-12-08T23:24:12.737Z,-1.52
2023-12-08T23:26:44.186Z,-1.58
2023-12-08T23:29:14.197Z,-1.62
2023-12-08T23:31:42.460Z,-1.64
2023-12-08T23:34:52.180Z,-1.64
2023-12-08T23:37:20.500Z,-1.61
2023-12-08T23:39:48.696Z,-1.64
2023-12-08T23:42:17.005Z,-1.62
2023-12-08T23:44:46.818Z,-1.61
2023-12-08T23:47:17.752Z,-1.66
2023-12-08T23:49:46.024Z,-1.63
2023-12-08T23:52:14.382Z,-1.64
2023-12-08T23:54:42.758Z,-1.63
2023-12-08T23:57:11.155Z,-1.62
2023-12-08T23:59:39.780Z,-1.61
